INFORMACIÓN METAR y TAF
METAR FOR LESA
ADDS - METARS form results

(0253 UTC 25 April 2018)
Data provider http://aviationweather.gov/adds/metars/
 
Forecast for: LESA (SALAMANCA (CIV/M, ES)
Text: TAF LESA 242300Z 2500/2524 08006KT CAVOK TX24/2514Z TN06/2505Z
Forecast period: 0000 UTC 25 April 2018 to 0000 UTC 26 April 2018
Forecast type: FROM: standard forecast or significant change
Winds: from the E (80 degrees) at 7 MPH (6 knots; 3.1 m/s)
Visibility: 6 or more miles (10+ km)
Clouds: not forecast
Weather: no significant weather forecast for this period
Forecast for: LESA (SALAMANCA (CIV/M, ES)
Text: TAF LESA 242300Z 2500/2524 08006KT CAVOK TX24/2514Z TN06/2505Z
Forecast period: 0000 UTC 25 April 2018 to 0000 UTC 26 April 2018
Forecast type: FROM: standard forecast or significant change
Winds: from the E (80 degrees) at 7 MPH (6 knots; 3.1 m/s)
Visibility: 6 or more miles (10+ km)
Clouds: not forecast
Weather: no significant weather forecast for this period
Forecast for: LESA (SALAMANCA (CIV/M, ES)
Text: TAF LESA 242300Z 2500/2524 08006KT CAVOK TX24/2514Z TN06/2505Z
Forecast period: 1200 to 1900 UTC 25 April 2018
Forecast type: TEMPORARY: The following changes expected for less than half the time period
Clouds: scattered clouds at 3500 feet AGL
Weather: no significant weather forecast for this period
Forecast for: LESA (SALAMANCA (CIV/M, ES)
Text: TAF LESA 242300Z 2500/2524 08006KT CAVOK TX24/2514Z TN06/2505Z
Forecast period: 1200 to 1900 UTC 25 April 2018
Forecast type: TEMPORARY: The following changes expected for less than half the time period
Clouds: scattered clouds at 3500 feet AGL
Weather: no significant weather forecast for this period
Forecast for: LESA (SALAMANCA (CIV/M, ES)
Text: TAF LESA 242300Z 2500/2524 08006KT CAVOK TX24/2514Z TN06/2505Z
Forecast period: 1400 to 1900 UTC 25 April 2018
Forecast type: PROBABLE: 30 percent likelihood of the following during this time
Clouds: scattered clouds at 3500 feet AGL
Weather: TS SHRA  (thunderstorm, rain showers)
Forecast for: LESA (SALAMANCA (CIV/M, ES)
Text: TAF LESA 242300Z 2500/2524 08006KT CAVOK TX24/2514Z TN06/2505Z
Forecast period: 1400 to 1900 UTC 25 April 2018
Forecast type: PROBABLE: 30 percent likelihood of the following during this time
Clouds: scattered clouds at 3500 feet AGL
Weather: TS SHRA  (thunderstorm, rain showers)

 MAPA DE AEROPUERTO

 INFORMACIÓN DE PISTA
Pista 03 Longitud 8202 ft Ancho 197 ft
Elevación 2595 ft Umbral desplazado 0 ft Rumbo de pista 28
Pista 21 Longitud 8202 ft Ancho 197 ft
Elevación 2586 ft Umbral desplazado 0 ft Rumbo de pista 208
Pista 08 Longitud 6594 ft Ancho 400 ft
Elevación 2587 ft Umbral desplazado 0 ft Rumbo de pista 74
Pista 26 Longitud 6594 ft Ancho 400 ft
Elevación 2588 ft Umbral desplazado 0 ft Rumbo de pista 254

 FRECUANCIAS DEL AEROPUERTO
Tipo APP Nombre APP Frecuencia 124.4 MHZ
Tipo GND Nombre GND Frecuencia 121.85 MHZ
Tipo TWR Nombre TWR Frecuencia 139.3 MHZ

 RADIO AYUDAS DEL AEROPUERTO
Tipo VOR-DME Nombre Salamanca Frecuencia 112200 KHZ
Tipo NDB Nombre Salamanca Frecuencia 399 KHZ
Tipo NDB Nombre Salamanca Frecuencia 423 KHZ
Tipo TACAN Nombre Salamanca Frecuencia 113300 KHZ